sensor_id;sensor_type;location;lat;lon;timestamp;temperature;humidity
36446;DHT22;22472;50.848;-1.216;2022-08-30T00:00:08;16.40;99.90
36446;DHT22;22472;50.848;-1.216;2022-08-30T00:02:53;16.30;99.90
36446;DHT22;22472;50.848;-1.216;2022-08-30T00:05:21;16.30;99.90
36446;DHT22;22472;50.848;-1.216;2022-08-30T00:07:48;16.30;99.90
36446;DHT22;22472;50.848;-1.216;2022-08-30T00:10:16;16.20;99.90
36446;DHT22;22472;50.848;-1.216;2022-08-30T00:12:43;16.20;99.90
36446;DHT22;22472;50.848;-1.216;2022-08-30T00:15:12;16.20;99.90
36446;DHT22;22472;50.848;-1.216;2022-08-30T00:17:40;16.20;99.90
36446;DHT22;22472;50.848;-1.216;2022-08-30T00:20:12;16.10;99.90
36446;DHT22;22472;50.848;-1.216;2022-08-30T00:22:39;16.10;99.90
36446;DHT22;22472;50.848;-1.216;2022-08-30T00:25:07;16.10;99.90
36446;DHT22;22472;50.848;-1.216;2022-08-30T00:27:34;16.10;99.90
36446;DHT22;22472;50.848;-1.216;2022-08-30T00:30:01;16.00;99.90
36446;DHT22;22472;50.848;-1.216;2022-08-30T00:32:29;16.00;99.90
36446;DHT22;22472;50.848;-1.216;2022-08-30T00:34:56;16.00;99.90
36446;DHT22;22472;50.848;-1.216;2022-08-30T00:37:24;15.90;99.90
36446;DHT22;22472;50.848;-1.216;2022-08-30T00:39:51;15.90;99.90
36446;DHT22;22472;50.848;-1.216;2022-08-30T00:42:19;15.90;99.90
36446;DHT22;22472;50.848;-1.216;2022-08-30T00:44:47;15.90;99.90
36446;DHT22;22472;50.848;-1.216;2022-08-30T00:47:14;15.90;99.90
36446;DHT22;22472;50.848;-1.216;2022-08-30T00:49:45;15.80;99.90
36446;DHT22;22472;50.848;-1.216;2022-08-30T00:52:13;15.80;99.90
36446;DHT22;22472;50.848;-1.216;2022-08-30T00:54:43;15.70;99.90
36446;DHT22;22472;50.848;-1.216;2022-08-30T00:57:11;15.70;99.90
36446;DHT22;22472;50.848;-1.216;2022-08-30T00:59:40;15.70;99.90
36446;DHT22;22472;50.848;-1.216;2022-08-30T01:02:09;15.70;99.90
36446;DHT22;22472;50.848;-1.216;2022-08-30T01:04:36;15.70;99.90
36446;DHT22;22472;50.848;-1.216;2022-08-30T01:07:06;15.70;99.90
36446;DHT22;22472;50.848;-1.216;2022-08-30T01:09:34;15.70;99.90
36446;DHT22;22472;50.848;-1.216;2022-08-30T01:12:01;15.70;99.90
36446;DHT22;22472;50.848;-1.216;2022-08-30T01:14:29;15.70;99.90
36446;DHT22;22472;50.848;-1.216;2022-08-30T01:16:58;15.70;99.90
36446;DHT22;22472;50.848;-1.216;2022-08-30T01:19:31;15.70;99.90
36446;DHT22;22472;50.848;-1.216;2022-08-30T01:22:03;15.70;99.90
36446;DHT22;22472;50.848;-1.216;2022-08-30T01:24:33;15.70;99.90
36446;DHT22;22472;50.848;-1.216;2022-08-30T01:27:00;15.60;99.90
36446;DHT22;22472;50.848;-1.216;2022-08-30T01:29:28;15.60;99.90
36446;DHT22;22472;50.848;-1.216;2022-08-30T01:31:55;15.60;99.90
36446;DHT22;22472;50.848;-1.216;2022-08-30T01:34:22;15.60;99.90
36446;DHT22;22472;50.848;-1.216;2022-08-30T01:36:50;15.60;99.90
36446;DHT22;22472;50.848;-1.216;2022-08-30T01:39:17;15.60;99.90
36446;DHT22;22472;50.848;-1.216;2022-08-30T01:41:46;15.60;99.90
36446;DHT22;22472;50.848;-1.216;2022-08-30T01:44:14;15.60;99.90
36446;DHT22;22472;50.848;-1.216;2022-08-30T01:46:43;15.60;99.90
36446;DHT22;22472;50.848;-1.216;2022-08-30T01:49:12;15.50;99.90
36446;DHT22;22472;50.848;-1.216;2022-08-30T01:51:39;15.50;99.90
36446;DHT22;22472;50.848;-1.216;2022-08-30T01:54:07;15.50;99.90
36446;DHT22;22472;50.848;-1.216;2022-08-30T01:56:35;15.50;99.90
36446;DHT22;22472;50.848;-1.216;2022-08-30T01:59:03;15.50;99.90
36446;DHT22;22472;50.848;-1.216;2022-08-30T02:04:18;15.40;99.90
36446;DHT22;22472;50.848;-1.216;2022-08-30T02:06:48;15.40;99.90
36446;DHT22;22472;50.848;-1.216;2022-08-30T02:09:15;15.40;99.90
36446;DHT22;22472;50.848;-1.216;2022-08-30T02:11:42;15.30;99.90
36446;DHT22;22472;50.848;-1.216;2022-08-30T02:14:11;15.30;99.90
36446;DHT22;22472;50.848;-1.216;2022-08-30T02:16:38;15.30;99.90
36446;DHT22;22472;50.848;-1.216;2022-08-30T02:19:06;15.30;99.90
36446;DHT22;22472;50.848;-1.216;2022-08-30T02:21:33;15.30;99.90
36446;DHT22;22472;50.848;-1.216;2022-08-30T02:24:00;15.20;99.90
36446;DHT22;22472;50.848;-1.216;2022-08-30T02:26:27;15.20;99.90
36446;DHT22;22472;50.848;-1.216;2022-08-30T02:28:54;15.20;99.90
36446;DHT22;22472;50.848;-1.216;2022-08-30T02:31:23;15.20;99.90
36446;DHT22;22472;50.848;-1.216;2022-08-30T02:33:51;15.10;99.90
36446;DHT22;22472;50.848;-1.216;2022-08-30T02:36:19;15.10;99.90
36446;DHT22;22472;50.848;-1.216;2022-08-30T02:38:47;15.10;99.90
36446;DHT22;22472;50.848;-1.216;2022-08-30T02:41:15;15.10;99.90
36446;DHT22;22472;50.848;-1.216;2022-08-30T02:43:42;15.10;99.90
36446;DHT22;22472;50.848;-1.216;2022-08-30T02:46:09;15.00;99.90
36446;DHT22;22472;50.848;-1.216;2022-08-30T02:48:37;15.10;99.90
36446;DHT22;22472;50.848;-1.216;2022-08-30T02:51:06;15.00;99.90
36446;DHT22;22472;50.848;-1.216;2022-08-30T02:53:34;15.00;99.90
36446;DHT22;22472;50.848;-1.216;2022-08-30T02:56:01;15.00;99.90
36446;DHT22;22472;50.848;-1.216;2022-08-30T02:58:28;15.00;99.90
36446;DHT22;22472;50.848;-1.216;2022-08-30T03:00:55;15.00;99.90
36446;DHT22;22472;50.848;-1.216;2022-08-30T03:03:22;14.90;99.90
36446;DHT22;22472;50.848;-1.216;2022-08-30T03:05:51;14.90;99.90
36446;DHT22;22472;50.848;-1.216;2022-08-30T03:08:18;14.90;99.90
36446;DHT22;22472;50.848;-1.216;2022-08-30T03:10:45;14.80;99.90
36446;DHT22;22472;50.848;-1.216;2022-08-30T03:13:12;14.80;99.90
36446;DHT22;22472;50.848;-1.216;2022-08-30T03:15:39;14.80;99.90
36446;DHT22;22472;50.848;-1.216;2022-08-30T03:18:07;14.80;99.90
36446;DHT22;22472;50.848;-1.216;2022-08-30T03:20:35;14.70;99.90
36446;DHT22;22472;50.848;-1.216;2022-08-30T03:23:03;14.70;99.90
36446;DHT22;22472;50.848;-1.216;2022-08-30T03:25:30;14.70;99.90
36446;DHT22;22472;50.848;-1.216;2022-08-30T03:27:58;14.70;99.90
36446;DHT22;22472;50.848;-1.216;2022-08-30T03:30:25;14.70;99.90
36446;DHT22;22472;50.848;-1.216;2022-08-30T03:32:52;14.70;99.90
36446;DHT22;22472;50.848;-1.216;2022-08-30T03:35:19;14.70;99.90
36446;DHT22;22472;50.848;-1.216;2022-08-30T03:37:46;14.70;99.90
36446;DHT22;22472;50.848;-1.216;2022-08-30T03:40:16;14.60;99.90
36446;DHT22;22472;50.848;-1.216;2022-08-30T03:42:44;14.70;99.90
36446;DHT22;22472;50.848;-1.216;2022-08-30T03:45:12;14.60;99.90
36446;DHT22;22472;50.848;-1.216;2022-08-30T03:47:39;14.60;99.90
36446;DHT22;22472;50.848;-1.216;2022-08-30T03:50:07;14.60;99.90
36446;DHT22;22472;50.848;-1.216;2022-08-30T03:52:35;14.60;99.90
36446;DHT22;22472;50.848;-1.216;2022-08-30T03:55:02;14.60;99.90
36446;DHT22;22472;50.848;-1.216;2022-08-30T03:57:31;14.60;99.90
36446;DHT22;22472;50.848;-1.216;2022-08-30T03:59:58;14.60;99.90
36446;DHT22;22472;50.848;-1.216;2022-08-30T04:02:25;14.60;99.90
36446;DHT22;22472;50.848;-1.216;2022-08-30T04:04:52;14.60;99.90
36446;DHT22;22472;50.848;-1.216;2022-08-30T04:07:19;14.60;99.90
36446;DHT22;22472;50.848;-1.216;2022-08-30T04:09:46;14.70;99.90
36446;DHT22;22472;50.848;-1.216;2022-08-30T04:12:14;14.60;99.90
36446;DHT22;22472;50.848;-1.216;2022-08-30T04:14:42;14.60;99.90
36446;DHT22;22472;50.848;-1.216;2022-08-30T04:17:09;14.60;99.90
36446;DHT22;22472;50.848;-1.216;2022-08-30T04:19:36;14.60;99.90
36446;DHT22;22472;50.848;-1.216;2022-08-30T04:22:03;14.70;99.90
36446;DHT22;22472;50.848;-1.216;2022-08-30T04:24:30;14.60;99.90
36446;DHT22;22472;50.848;-1.216;2022-08-30T04:26:59;14.60;99.90
36446;DHT22;22472;50.848;-1.216;2022-08-30T04:29:26;14.60;99.90
36446;DHT22;22472;50.848;-1.216;2022-08-30T04:31:54;14.60;99.90
36446;DHT22;22472;50.848;-1.216;2022-08-30T04:34:21;14.60;99.90
36446;DHT22;22472;50.848;-1.216;2022-08-30T04:36:48;14.60;99.90
36446;DHT22;22472;50.848;-1.216;2022-08-30T04:39:16;14.60;99.90
36446;DHT22;22472;50.848;-1.216;2022-08-30T04:41:44;14.60;99.90
36446;DHT22;22472;50.848;-1.216;2022-08-30T04:44:11;14.60;99.90
36446;DHT22;22472;50.848;-1.216;2022-08-30T04:46:39;14.60;99.90
36446;DHT22;22472;50.848;-1.216;2022-08-30T04:49:08;14.50;99.90
36446;DHT22;22472;50.848;-1.216;2022-08-30T04:51:34;14.50;99.90
36446;DHT22;22472;50.848;-1.216;2022-08-30T04:54:01;14.50;99.90
36446;DHT22;22472;50.848;-1.216;2022-08-30T04:56:28;14.50;99.90
36446;DHT22;22472;50.848;-1.216;2022-08-30T04:58:55;14.50;99.90
36446;DHT22;22472;50.848;-1.216;2022-08-30T05:01:25;14.50;99.90
36446;DHT22;22472;50.848;-1.216;2022-08-30T05:03:53;14.50;99.90
36446;DHT22;22472;50.848;-1.216;2022-08-30T05:06:24;14.50;99.90
36446;DHT22;22472;50.848;-1.216;2022-08-30T05:08:52;14.50;99.90
36446;DHT22;22472;50.848;-1.216;2022-08-30T05:11:20;14.50;99.90
36446;DHT22;22472;50.848;-1.216;2022-08-30T05:13:47;14.50;99.90
36446;DHT22;22472;50.848;-1.216;2022-08-30T05:16:14;14.50;99.90
36446;DHT22;22472;50.848;-1.216;2022-08-30T05:18:44;14.50;99.90
36446;DHT22;22472;50.848;-1.216;2022-08-30T05:21:13;14.50;99.90
36446;DHT22;22472;50.848;-1.216;2022-08-30T05:23:42;14.50;99.90
36446;DHT22;22472;50.848;-1.216;2022-08-30T05:26:13;14.40;99.90
36446;DHT22;22472;50.848;-1.216;2022-08-30T05:28:41;14.50;99.90
36446;DHT22;22472;50.848;-1.216;2022-08-30T05:31:13;14.40;99.90
36446;DHT22;22472;50.848;-1.216;2022-08-30T05:33:41;14.40;99.90
36446;DHT22;22472;50.848;-1.216;2022-08-30T05:36:09;14.40;99.90
36446;DHT22;22472;50.848;-1.216;2022-08-30T05:38:37;14.50;99.90
36446;DHT22;22472;50.848;-1.216;2022-08-30T05:41:06;14.50;99.90
36446;DHT22;22472;50.848;-1.216;2022-08-30T05:43:33;14.50;99.90
36446;DHT22;22472;50.848;-1.216;2022-08-30T05:46:02;14.50;99.90
36446;DHT22;22472;50.848;-1.216;2022-08-30T05:48:30;14.50;99.90
36446;DHT22;22472;50.848;-1.216;2022-08-30T05:51:01;14.50;99.90
36446;DHT22;22472;50.848;-1.216;2022-08-30T05:53:29;14.50;99.90
36446;DHT22;22472;50.848;-1.216;2022-08-30T05:55:56;14.50;99.90
36446;DHT22;22472;50.848;-1.216;2022-08-30T05:58:24;14.50;99.90
36446;DHT22;22472;50.848;-1.216;2022-08-30T06:00:51;14.50;99.90
36446;DHT22;22472;50.848;-1.216;2022-08-30T06:03:18;14.60;99.90
36446;DHT22;22472;50.848;-1.216;2022-08-30T06:05:45;14.60;99.90
36446;DHT22;22472;50.848;-1.216;2022-08-30T06:08:12;14.60;99.90
36446;DHT22;22472;50.848;-1.216;2022-08-30T06:10:39;14.60;99.90
36446;DHT22;22472;50.848;-1.216;2022-08-30T06:13:06;14.60;99.90
36446;DHT22;22472;50.848;-1.216;2022-08-30T06:15:36;14.70;99.90
36446;DHT22;22472;50.848;-1.216;2022-08-30T06:18:03;14.70;99.90
36446;DHT22;22472;50.848;-1.216;2022-08-30T06:20:30;14.70;99.90
36446;DHT22;22472;50.848;-1.216;2022-08-30T06:22:57;14.80;99.90
36446;DHT22;22472;50.848;-1.216;2022-08-30T06:25:24;14.80;99.90
36446;DHT22;22472;50.848;-1.216;2022-08-30T06:27:51;14.80;99.90
36446;DHT22;22472;50.848;-1.216;2022-08-30T06:30:18;14.90;99.90
36446;DHT22;22472;50.848;-1.216;2022-08-30T06:32:46;15.00;99.90
36446;DHT22;22472;50.848;-1.216;2022-08-30T06:35:13;15.10;99.90
36446;DHT22;22472;50.848;-1.216;2022-08-30T06:37:40;15.10;99.90
36446;DHT22;22472;50.848;-1.216;2022-08-30T06:40:08;15.20;99.90
36446;DHT22;22472;50.848;-1.216;2022-08-30T06:42:36;15.20;99.90
36446;DHT22;22472;50.848;-1.216;2022-08-30T06:45:03;15.30;99.90
36446;DHT22;22472;50.848;-1.216;2022-08-30T06:47:30;15.30;99.90
36446;DHT22;22472;50.848;-1.216;2022-08-30T06:49:59;15.40;99.90
36446;DHT22;22472;50.848;-1.216;2022-08-30T06:52:26;15.50;99.90
36446;DHT22;22472;50.848;-1.216;2022-08-30T06:54:53;15.50;99.90
36446;DHT22;22472;50.848;-1.216;2022-08-30T06:57:22;15.60;99.90
36446;DHT22;22472;50.848;-1.216;2022-08-30T06:59:53;15.80;99.90
36446;DHT22;22472;50.848;-1.216;2022-08-30T07:02:20;15.80;99.90
36446;DHT22;22472;50.848;-1.216;2022-08-30T07:04:47;15.90;99.90
36446;DHT22;22472;50.848;-1.216;2022-08-30T07:07:15;16.10;99.90
36446;DHT22;22472;50.848;-1.216;2022-08-30T07:09:42;16.20;99.90
36446;DHT22;22472;50.848;-1.216;2022-08-30T07:12:10;16.20;99.90
36446;DHT22;22472;50.848;-1.216;2022-08-30T07:14:38;16.30;99.90
36446;DHT22;22472;50.848;-1.216;2022-08-30T07:17:06;16.40;99.90
36446;DHT22;22472;50.848;-1.216;2022-08-30T07:19:55;16.50;99.90
36446;DHT22;22472;50.848;-1.216;2022-08-30T07:22:22;16.60;99.90
36446;DHT22;22472;50.848;-1.216;2022-08-30T07:24:49;16.60;99.90
36446;DHT22;22472;50.848;-1.216;2022-08-30T07:27:16;16.70;99.90
36446;DHT22;22472;50.848;-1.216;2022-08-30T07:29:43;16.80;99.90
36446;DHT22;22472;50.848;-1.216;2022-08-30T07:32:10;17.00;99.90
36446;DHT22;22472;50.848;-1.216;2022-08-30T07:34:37;17.00;99.90
36446;DHT22;22472;50.848;-1.216;2022-08-30T07:37:04;17.20;99.90
36446;DHT22;22472;50.848;-1.216;2022-08-30T07:39:32;17.30;99.90
36446;DHT22;22472;50.848;-1.216;2022-08-30T07:42:00;17.40;99.90
36446;DHT22;22472;50.848;-1.216;2022-08-30T07:44:27;17.50;99.90
36446;DHT22;22472;50.848;-1.216;2022-08-30T07:46:54;17.60;99.90
36446;DHT22;22472;50.848;-1.216;2022-08-30T07:49:21;17.80;99.90
36446;DHT22;22472;50.848;-1.216;2022-08-30T07:51:48;17.90;99.90
36446;DHT22;22472;50.848;-1.216;2022-08-30T07:54:16;18.10;99.90
36446;DHT22;22472;50.848;-1.216;2022-08-30T07:56:44;18.40;99.90
36446;DHT22;22472;50.848;-1.216;2022-08-30T07:59:13;18.50;99.90
36446;DHT22;22472;50.848;-1.216;2022-08-30T08:01:40;18.60;99.90
36446;DHT22;22472;50.848;-1.216;2022-08-30T08:04:07;18.70;99.90
36446;DHT22;22472;50.848;-1.216;2022-08-30T08:06:37;18.70;99.90
36446;DHT22;22472;50.848;-1.216;2022-08-30T08:09:04;18.90;99.90
36446;DHT22;22472;50.848;-1.216;2022-08-30T08:11:32;19.20;99.90
36446;DHT22;22472;50.848;-1.216;2022-08-30T08:14:02;19.30;99.90
36446;DHT22;22472;50.848;-1.216;2022-08-30T08:16:32;19.40;99.90
36446;DHT22;22472;50.848;-1.216;2022-08-30T08:19:00;19.50;99.90
36446;DHT22;22472;50.848;-1.216;2022-08-30T08:21:27;19.60;99.90
36446;DHT22;22472;50.848;-1.216;2022-08-30T08:23:54;19.70;99.90
36446;DHT22;22472;50.848;-1.216;2022-08-30T08:26:21;19.80;99.90
36446;DHT22;22472;50.848;-1.216;2022-08-30T08:28:48;20.00;99.90
36446;DHT22;22472;50.848;-1.216;2022-08-30T08:31:18;20.10;99.90
36446;DHT22;22472;50.848;-1.216;2022-08-30T08:33:46;20.40;99.90
36446;DHT22;22472;50.848;-1.216;2022-08-30T08:36:13;20.60;99.90
36446;DHT22;22472;50.848;-1.216;2022-08-30T08:38:40;20.90;99.90
36446;DHT22;22472;50.848;-1.216;2022-08-30T08:41:12;21.30;99.90
36446;DHT22;22472;50.848;-1.216;2022-08-30T08:43:42;21.40;99.90
36446;DHT22;22472;50.848;-1.216;2022-08-30T08:46:12;21.30;99.90
36446;DHT22;22472;50.848;-1.216;2022-08-30T08:48:45;21.60;99.90
36446;DHT22;22472;50.848;-1.216;2022-08-30T08:51:17;21.80;99.90
36446;DHT22;22472;50.848;-1.216;2022-08-30T08:54:05;21.90;99.90
36446;DHT22;22472;50.848;-1.216;2022-08-30T08:56:34;21.90;99.90
36446;DHT22;22472;50.848;-1.216;2022-08-30T08:59:04;21.80;99.90
36446;DHT22;22472;50.848;-1.216;2022-08-30T09:01:32;21.50;99.90
36446;DHT22;22472;50.848;-1.216;2022-08-30T09:04:07;21.60;99.90
36446;DHT22;22472;50.848;-1.216;2022-08-30T09:06:45;21.80;99.90
36446;DHT22;22472;50.848;-1.216;2022-08-30T09:09:15;22.00;99.90
36446;DHT22;22472;50.848;-1.216;2022-08-30T09:11:45;22.20;99.90
36446;DHT22;22472;50.848;-1.216;2022-08-30T09:14:17;22.40;99.90
36446;DHT22;22472;50.848;-1.216;2022-08-30T09:16:47;22.30;99.90
36446;DHT22;22472;50.848;-1.216;2022-08-30T09:19:32;22.60;99.90
36446;DHT22;22472;50.848;-1.216;2022-08-30T09:22:02;22.60;99.90
36446;DHT22;22472;50.848;-1.216;2022-08-30T09:24:42;22.80;99.90
36446;DHT22;22472;50.848;-1.216;2022-08-30T09:27:19;23.10;99.90
36446;DHT22;22472;50.848;-1.216;2022-08-30T09:29:52;23.70;99.90
36446;DHT22;22472;50.848;-1.216;2022-08-30T09:32:24;24.00;99.90
36446;DHT22;22472;50.848;-1.216;2022-08-30T09:34:54;23.70;99.90
36446;DHT22;22472;50.848;-1.216;2022-08-30T09:37:28;23.70;99.90
36446;DHT22;22472;50.848;-1.216;2022-08-30T09:39:56;23.30;99.90
36446;DHT22;22472;50.848;-1.216;2022-08-30T09:42:26;22.90;99.90
36446;DHT22;22472;50.848;-1.216;2022-08-30T09:44:54;22.40;99.90
36446;DHT22;22472;50.848;-1.216;2022-08-30T09:47:36;22.30;99.90
36446;DHT22;22472;50.848;-1.216;2022-08-30T09:50:08;22.40;99.90
36446;DHT22;22472;50.848;-1.216;2022-08-30T09:52:51;23.00;99.90
36446;DHT22;22472;50.848;-1.216;2022-08-30T09:55:43;23.50;99.90
36446;DHT22;22472;50.848;-1.216;2022-08-30T09:58:18;23.60;99.90
36446;DHT22;22472;50.848;-1.216;2022-08-30T10:00:54;23.50;99.90
36446;DHT22;22472;50.848;-1.216;2022-08-30T10:03:27;23.20;99.90
36446;DHT22;22472;50.848;-1.216;2022-08-30T10:06:05;22.90;99.90
36446;DHT22;22472;50.848;-1.216;2022-08-30T10:08:43;22.70;99.90
36446;DHT22;22472;50.848;-1.216;2022-08-30T10:11:17;22.90;99.90
36446;DHT22;22472;50.848;-1.216;2022-08-30T10:13:56;23.40;99.90
36446;DHT22;22472;50.848;-1.216;2022-08-30T10:16:40;23.40;99.90
36446;DHT22;22472;50.848;-1.216;2022-08-30T10:19:23;23.50;99.90
36446;DHT22;22472;50.848;-1.216;2022-08-30T10:21:58;23.50;99.90
36446;DHT22;22472;50.848;-1.216;2022-08-30T10:24:30;23.50;99.90
36446;DHT22;22472;50.848;-1.216;2022-08-30T10:27:04;23.50;99.90
36446;DHT22;22472;50.848;-1.216;2022-08-30T10:29:38;23.50;99.90
36446;DHT22;22472;50.848;-1.216;2022-08-30T10:32:14;23.80;99.90
36446;DHT22;22472;50.848;-1.216;2022-08-30T10:34:46;23.80;99.90
36446;DHT22;22472;50.848;-1.216;2022-08-30T10:37:19;24.10;99.90
36446;DHT22;22472;50.848;-1.216;2022-08-30T10:39:50;24.00;99.90
36446;DHT22;22472;50.848;-1.216;2022-08-30T10:42:19;24.50;99.90
36446;DHT22;22472;50.848;-1.216;2022-08-30T10:44:49;24.60;99.90
36446;DHT22;22472;50.848;-1.216;2022-08-30T10:47:24;24.80;99.90
36446;DHT22;22472;50.848;-1.216;2022-08-30T10:50:02;24.70;99.90
36446;DHT22;22472;50.848;-1.216;2022-08-30T10:52:35;24.90;99.90
36446;DHT22;22472;50.848;-1.216;2022-08-30T10:55:09;24.50;99.90
36446;DHT22;22472;50.848;-1.216;2022-08-30T10:57:37;24.30;99.90
36446;DHT22;22472;50.848;-1.216;2022-08-30T11:00:06;24.60;99.90
36446;DHT22;22472;50.848;-1.216;2022-08-30T11:03:11;25.40;99.90
36446;DHT22;22472;50.848;-1.216;2022-08-30T11:05:52;25.80;99.90
36446;DHT22;22472;50.848;-1.216;2022-08-30T11:08:36;25.20;99.90
36446;DHT22;22472;50.848;-1.216;2022-08-30T11:11:14;25.60;99.90
36446;DHT22;22472;50.848;-1.216;2022-08-30T11:13:45;26.40;99.90
36446;DHT22;22472;50.848;-1.216;2022-08-30T11:16:14;26.70;99.90
36446;DHT22;22472;50.848;-1.216;2022-08-30T11:18:44;26.70;99.90
36446;DHT22;22472;50.848;-1.216;2022-08-30T11:21:22;27.20;99.90
36446;DHT22;22472;50.848;-1.216;2022-08-30T11:24:03;27.90;99.90
36446;DHT22;22472;50.848;-1.216;2022-08-30T11:26:57;27.30;99.90
36446;DHT22;22472;50.848;-1.216;2022-08-30T11:29:37;27.40;99.90
36446;DHT22;22472;50.848;-1.216;2022-08-30T11:34:55;26.90;99.90
36446;DHT22;22472;50.848;-1.216;2022-08-30T11:37:36;26.70;99.90
36446;DHT22;22472;50.848;-1.216;2022-08-30T11:46:16;26.30;99.90
36446;DHT22;22472;50.848;-1.216;2022-08-30T11:48:47;26.40;99.90
36446;DHT22;22472;50.848;-1.216;2022-08-30T11:51:35;26.20;99.90
36446;DHT22;22472;50.848;-1.216;2022-08-30T11:54:12;26.20;99.90
36446;DHT22;22472;50.848;-1.216;2022-08-30T11:56:49;26.30;99.90
36446;DHT22;22472;50.848;-1.216;2022-08-30T11:59:24;26.30;99.90
36446;DHT22;22472;50.848;-1.216;2022-08-30T12:01:56;26.30;99.90
36446;DHT22;22472;50.848;-1.216;2022-08-30T12:04:33;26.50;99.90
36446;DHT22;22472;50.848;-1.216;2022-08-30T12:07:03;26.70;99.90
36446;DHT22;22472;50.848;-1.216;2022-08-30T12:10:02;26.70;99.90
36446;DHT22;22472;50.848;-1.216;2022-08-30T12:12:53;26.70;99.90
36446;DHT22;22472;50.848;-1.216;2022-08-30T12:15:54;26.80;99.90
36446;DHT22;22472;50.848;-1.216;2022-08-30T12:18:42;26.40;99.90
36446;DHT22;22472;50.848;-1.216;2022-08-30T12:21:23;25.90;99.90
36446;DHT22;22472;50.848;-1.216;2022-08-30T12:23:55;25.60;99.90
36446;DHT22;22472;50.848;-1.216;2022-08-30T12:26:35;26.20;99.90
36446;DHT22;22472;50.848;-1.216;2022-08-30T12:29:17;26.70;99.90
36446;DHT22;22472;50.848;-1.216;2022-08-30T12:31:47;27.20;99.90
36446;DHT22;22472;50.848;-1.216;2022-08-30T12:34:25;27.30;99.90
36446;DHT22;22472;50.848;-1.216;2022-08-30T12:36:56;27.20;99.90
36446;DHT22;22472;50.848;-1.216;2022-08-30T12:39:26;27.20;99.90
36446;DHT22;22472;50.848;-1.216;2022-08-30T12:41:54;27.40;99.90
36446;DHT22;22472;50.848;-1.216;2022-08-30T12:44:24;27.60;99.90
36446;DHT22;22472;50.848;-1.216;2022-08-30T12:46:55;27.00;99.90
36446;DHT22;22472;50.848;-1.216;2022-08-30T12:49:26;27.30;99.90
36446;DHT22;22472;50.848;-1.216;2022-08-30T12:51:55;27.50;99.90
36446;DHT22;22472;50.848;-1.216;2022-08-30T12:54:25;27.70;99.90
36446;DHT22;22472;50.848;-1.216;2022-08-30T12:56:56;27.80;99.90
36446;DHT22;22472;50.848;-1.216;2022-08-30T12:59:44;27.40;99.90
36446;DHT22;22472;50.848;-1.216;2022-08-30T13:02:15;27.00;99.90
36446;DHT22;22472;50.848;-1.216;2022-08-30T13:04:44;27.30;99.90
36446;DHT22;22472;50.848;-1.216;2022-08-30T13:07:27;27.60;99.90
36446;DHT22;22472;50.848;-1.216;2022-08-30T13:10:12;27.60;99.90
36446;DHT22;22472;50.848;-1.216;2022-08-30T13:12:40;27.10;99.90
36446;DHT22;22472;50.848;-1.216;2022-08-30T13:15:28;26.90;99.90
36446;DHT22;22472;50.848;-1.216;2022-08-30T13:18:11;27.20;99.90
36446;DHT22;22472;50.848;-1.216;2022-08-30T13:20:43;27.80;99.90
36446;DHT22;22472;50.848;-1.216;2022-08-30T13:23:11;27.80;99.90
36446;DHT22;22472;50.848;-1.216;2022-08-30T13:25:46;27.80;99.90
36446;DHT22;22472;50.848;-1.216;2022-08-30T13:28:13;27.30;99.90
36446;DHT22;22472;50.848;-1.216;2022-08-30T13:30:40;27.10;99.90
36446;DHT22;22472;50.848;-1.216;2022-08-30T13:33:07;27.10;99.90
36446;DHT22;22472;50.848;-1.216;2022-08-30T13:35:36;27.40;99.90
36446;DHT22;22472;50.848;-1.216;2022-08-30T13:38:04;27.30;99.90
36446;DHT22;22472;50.848;-1.216;2022-08-30T13:40:31;27.20;99.90
36446;DHT22;22472;50.848;-1.216;2022-08-30T13:42:58;27.30;99.90
36446;DHT22;22472;50.848;-1.216;2022-08-30T13:45:25;27.30;99.90
36446;DHT22;22472;50.848;-1.216;2022-08-30T13:47:53;27.30;99.90
36446;DHT22;22472;50.848;-1.216;2022-08-30T13:50:20;27.30;99.90
36446;DHT22;22472;50.848;-1.216;2022-08-30T13:52:47;27.90;99.90
36446;DHT22;22472;50.848;-1.216;2022-08-30T13:55:16;28.20;99.90
36446;DHT22;22472;50.848;-1.216;2022-08-30T13:57:43;28.20;99.90
36446;DHT22;22472;50.848;-1.216;2022-08-30T14:00:14;28.60;99.90
36446;DHT22;22472;50.848;-1.216;2022-08-30T14:02:42;29.00;99.90
36446;DHT22;22472;50.848;-1.216;2022-08-30T14:05:09;28.40;99.90
36446;DHT22;22472;50.848;-1.216;2022-08-30T14:07:36;28.30;99.90
36446;DHT22;22472;50.848;-1.216;2022-08-30T14:10:04;28.60;99.90
36446;DHT22;22472;50.848;-1.216;2022-08-30T14:12:33;28.80;99.90
36446;DHT22;22472;50.848;-1.216;2022-08-30T14:14:59;28.90;99.90
36446;DHT22;22472;50.848;-1.216;2022-08-30T14:17:28;29.10;99.90
36446;DHT22;22472;50.848;-1.216;2022-08-30T14:19:57;28.90;99.90
36446;DHT22;22472;50.848;-1.216;2022-08-30T14:22:25;29.10;99.90
36446;DHT22;22472;50.848;-1.216;2022-08-30T14:24:52;29.10;99.90
36446;DHT22;22472;50.848;-1.216;2022-08-30T14:27:20;29.10;99.90
36446;DHT22;22472;50.848;-1.216;2022-08-30T14:29:48;28.40;99.90
36446;DHT22;22472;50.848;-1.216;2022-08-30T14:32:15;27.90;99.90
36446;DHT22;22472;50.848;-1.216;2022-08-30T14:34:42;27.80;99.90
36446;DHT22;22472;50.848;-1.216;2022-08-30T14:37:09;27.70;99.90
36446;DHT22;22472;50.848;-1.216;2022-08-30T14:39:37;28.10;99.90
36446;DHT22;22472;50.848;-1.216;2022-08-30T14:42:04;28.40;99.90
36446;DHT22;22472;50.848;-1.216;2022-08-30T14:44:32;28.60;99.90
36446;DHT22;22472;50.848;-1.216;2022-08-30T14:47:00;28.30;99.90
36446;DHT22;22472;50.848;-1.216;2022-08-30T14:49:27;28.80;99.90
36446;DHT22;22472;50.848;-1.216;2022-08-30T14:51:54;29.70;99.90
36446;DHT22;22472;50.848;-1.216;2022-08-30T14:54:23;29.10;99.90
36446;DHT22;22472;50.848;-1.216;2022-08-30T14:56:50;28.50;99.90
36446;DHT22;22472;50.848;-1.216;2022-08-30T14:59:18;29.00;99.90
36446;DHT22;22472;50.848;-1.216;2022-08-30T15:01:46;29.60;99.90
36446;DHT22;22472;50.848;-1.216;2022-08-30T15:04:15;29.40;99.90
36446;DHT22;22472;50.848;-1.216;2022-08-30T15:06:43;29.20;99.90
36446;DHT22;22472;50.848;-1.216;2022-08-30T15:09:13;29.50;99.90
36446;DHT22;22472;50.848;-1.216;2022-08-30T15:11:41;29.30;99.90
36446;DHT22;22472;50.848;-1.216;2022-08-30T15:14:09;29.00;99.90
36446;DHT22;22472;50.848;-1.216;2022-08-30T15:16:37;29.40;99.90
36446;DHT22;22472;50.848;-1.216;2022-08-30T15:19:06;29.90;99.90
36446;DHT22;22472;50.848;-1.216;2022-08-30T15:21:37;30.00;99.90
36446;DHT22;22472;50.848;-1.216;2022-08-30T15:24:06;29.30;99.90
36446;DHT22;22472;50.848;-1.216;2022-08-30T15:26:33;28.90;99.90
36446;DHT22;22472;50.848;-1.216;2022-08-30T15:29:05;28.20;99.90
36446;DHT22;22472;50.848;-1.216;2022-08-30T15:31:33;28.10;99.90
36446;DHT22;22472;50.848;-1.216;2022-08-30T15:34:00;27.90;99.90
36446;DHT22;22472;50.848;-1.216;2022-08-30T15:36:28;27.80;99.90
36446;DHT22;22472;50.848;-1.216;2022-08-30T15:38:57;27.70;99.90
36446;DHT22;22472;50.848;-1.216;2022-08-30T15:41:25;27.60;99.90
36446;DHT22;22472;50.848;-1.216;2022-08-30T15:43:53;27.40;99.90